Terminal Aerodrome Forecast
Issued by NWS

Home | Current Version | Previous Version | Text Only | Print | Product List | Glossary On
Versions: 1 2 3 4 5 6 7 8 9 10 11 12 13
000
FTUS43 KPAH 231700
TAFCGI
TAF
KCGI 231720Z 2318/2418 09008KT P6SM FEW100 SCT250
     FM240000 12005KT P6SM FEW150
     FM241500 17012G19KT P6SM FEW045 SCT180=

USA.gov is the U.S. government's official web portal to all federal, state and local government web resources and services.